createdAt,value
2019-01-08T00:02:25.270Z,-2.73
2019-01-08T00:04:57.299Z,-2.81
2019-01-08T00:07:27.952Z,-2.73
2019-01-08T00:09:58.420Z,-2.80
2019-01-08T00:12:29.133Z,-2.84
2019-01-08T00:14:59.829Z,-2.86
2019-01-08T00:17:30.447Z,-2.88
2019-01-08T00:20:01.122Z,-2.91
2019-01-08T00:22:31.654Z,-2.91
2019-01-08T00:25:02.125Z,-2.92
2019-01-08T00:27:33.660Z,-2.97
2019-01-08T00:30:04.060Z,-3.01
2019-01-08T00:32:34.641Z,-3.04
2019-01-08T00:35:05.655Z,-3.02
2019-01-08T00:37:36.188Z,-2.97
2019-01-08T00:40:06.953Z,-3.08
2019-01-08T00:42:37.510Z,-3.07
2019-01-08T00:45:08.034Z,-3.06
2019-01-08T00:47:38.914Z,-3.05
2019-01-08T00:50:09.691Z,-3.11
2019-01-08T00:52:40.178Z,-3.14
2019-01-08T00:55:10.750Z,-3.25
2019-01-08T00:57:41.229Z,-3.29
2019-01-08T01:00:12.207Z,-3.37
2019-01-08T01:02:43.066Z,-3.50
2019-01-08T01:05:13.575Z,-3.46
2019-01-08T01:07:44.164Z,-3.52
2019-01-08T01:10:14.999Z,-3.50
2019-01-08T01:12:45.570Z,-3.49
2019-01-08T01:15:17.228Z,-3.47
2019-01-08T01:17:47.781Z,-3.60
2019-01-08T01:20:18.391Z,-3.60
2019-01-08T01:22:49.082Z,-3.58
2019-01-08T01:25:19.695Z,-3.50
2019-01-08T01:27:51.351Z,-3.50
2019-01-08T01:30:21.921Z,-3.56
2019-01-08T01:32:52.596Z,-3.54
2019-01-08T01:35:23.084Z,-3.51
2019-01-08T01:37:54.032Z,-3.46
2019-01-08T01:40:24.623Z,-3.49
2019-01-08T01:42:55.164Z,-3.50
2019-01-08T01:45:27.132Z,-3.52
2019-01-08T01:47:57.835Z,-3.58
2019-01-08T01:50:28.310Z,-3.57
2019-01-08T01:53:01.476Z,-3.65
2019-01-08T01:55:32.072Z,-3.67
2019-01-08T01:58:02.570Z,-3.65
2019-01-08T02:00:33.063Z,-3.73
2019-01-08T02:03:05.045Z,-3.80
2019-01-08T02:05:35.664Z,-3.77
2019-01-08T02:08:06.225Z,-3.79
2019-01-08T02:10:36.724Z,-3.88
2019-01-08T02:13:07.177Z,-3.88
2019-01-08T02:15:38.123Z,-3.88
2019-01-08T02:18:08.685Z,-3.97
2019-01-08T02:20:39.069Z,-4.04
2019-01-08T02:23:09.622Z,-4.08
2019-01-08T02:25:40.207Z,-4.08
2019-01-08T02:28:10.769Z,-4.05
2019-01-08T02:30:41.552Z,-4.09
2019-01-08T02:33:13.170Z,-4.13
2019-01-08T02:35:44.080Z,-4.20
2019-01-08T02:38:15.606Z,-4.19
2019-01-08T02:40:46.320Z,-4.21
2019-01-08T02:43:17.324Z,-4.16
2019-01-08T02:45:47.804Z,-4.14
2019-01-08T02:48:18.458Z,-4.14
2019-01-08T02:50:49.004Z,-4.14
2019-01-08T02:53:19.636Z,-4.16
2019-01-08T02:55:51.476Z,-4.11
2019-01-08T02:58:22.863Z,-4.17
2019-01-08T03:00:53.561Z,-4.10
2019-01-08T03:03:24.112Z,-4.08
2019-01-08T03:05:54.905Z,-4.18
2019-01-08T03:08:25.904Z,-4.18
2019-01-08T03:10:56.614Z,-4.25
2019-01-08T03:13:27.046Z,-4.25
2019-01-08T03:15:57.604Z,-4.25
2019-01-08T03:18:28.074Z,-4.23
2019-01-08T03:20:58.658Z,-4.31
2019-01-08T03:23:29.277Z,-4.28
2019-01-08T03:25:59.689Z,-4.21
2019-01-08T03:28:30.267Z,-4.21
2019-01-08T03:31:01.079Z,-4.21
2019-01-08T03:33:31.511Z,-4.28
2019-01-08T03:36:02.055Z,-4.30
2019-01-08T03:38:32.722Z,-4.20
2019-01-08T03:41:03.310Z,-4.27
2019-01-08T03:43:33.792Z,-4.28
2019-01-08T03:46:04.530Z,-4.34
2019-01-08T03:48:35.022Z,-4.32
2019-01-08T03:51:05.758Z,-4.31
2019-01-08T03:53:36.234Z,-4.38
2019-01-08T03:56:06.667Z,-4.45
2019-01-08T03:58:37.113Z,-4.41
2019-01-08T04:01:07.849Z,-4.35
2019-01-08T04:03:38.403Z,-4.35
2019-01-08T04:06:08.918Z,-4.40
2019-01-08T04:08:39.530Z,-4.41
2019-01-08T04:11:10.378Z,-4.41
2019-01-08T04:13:41.157Z,-4.44
2019-01-08T04:16:11.601Z,-4.40
2019-01-08T04:18:44.536Z,-4.44
2019-01-08T04:21:15.203Z,-4.52
2019-01-08T04:23:45.713Z,-4.54
2019-01-08T04:26:16.243Z,-4.67
2019-01-08T04:28:46.766Z,-4.61
2019-01-08T04:31:17.374Z,-4.64
2019-01-08T04:33:47.929Z,-4.64
2019-01-08T04:36:18.592Z,-4.60
2019-01-08T04:38:49.313Z,-4.62
2019-01-08T04:41:19.856Z,-4.55
2019-01-08T04:43:50.455Z,-4.60
2019-01-08T04:46:20.986Z,-4.56
2019-01-08T04:48:51.803Z,-4.53
2019-01-08T04:51:24.209Z,-4.52
2019-01-08T04:53:54.652Z,-4.46
2019-01-08T04:56:25.249Z,-4.49
2019-01-08T04:58:55.777Z,-4.57
2019-01-08T05:01:26.807Z,-4.58
2019-01-08T05:03:57.238Z,-4.51
2019-01-08T05:06:27.787Z,-4.54
2019-01-08T05:08:58.575Z,-4.52
2019-01-08T05:11:29.368Z,-4.61
2019-01-08T05:14:00.299Z,-4.66
2019-01-08T05:16:31.076Z,-4.68
2019-01-08T05:19:01.631Z,-4.65
2019-01-08T05:21:32.150Z,-4.64
2019-01-08T05:24:02.753Z,-4.74
2019-01-08T05:26:33.560Z,-4.74
2019-01-08T05:29:04.263Z,-4.81
2019-01-08T05:31:36.057Z,-4.79
2019-01-08T05:34:06.816Z,-4.80
2019-01-08T05:36:37.497Z,-4.82
2019-01-08T05:39:08.369Z,-4.72
2019-01-08T05:41:38.861Z,-4.72
2019-01-08T05:44:10.065Z,-4.67
2019-01-08T05:46:40.994Z,-4.67
2019-01-08T05:49:11.802Z,-4.64
2019-01-08T05:51:42.726Z,-4.69
2019-01-08T05:54:13.455Z,-4.68
2019-01-08T05:56:46.859Z,-4.70
2019-01-08T05:59:21.235Z,-4.73
2019-01-08T06:01:52.048Z,-4.72
2019-01-08T06:04:22.562Z,-4.71
2019-01-08T06:06:53.251Z,-4.71
2019-01-08T06:09:23.951Z,-4.73
2019-01-08T06:11:54.408Z,-4.79
2019-01-08T06:14:24.823Z,-4.80
2019-01-08T06:16:55.403Z,-4.71
2019-01-08T06:19:26.035Z,-4.73
2019-01-08T06:21:57.023Z,-4.68
2019-01-08T06:24:27.517Z,-4.66
2019-01-08T06:26:58.052Z,-4.68
2019-01-08T06:29:28.706Z,-4.66
2019-01-08T06:31:59.473Z,-4.67
2019-01-08T06:34:29.940Z,-4.61
2019-01-08T06:37:02.000Z,-4.51
2019-01-08T06:39:32.732Z,-4.47
2019-01-08T06:42:04.438Z,-4.45
2019-01-08T06:44:35.140Z,-4.40
2019-01-08T06:47:06.369Z,-4.29
2019-01-08T06:49:37.265Z,-4.34
2019-01-08T06:52:07.830Z,-4.34
2019-01-08T06:54:38.685Z,-4.22
2019-01-08T06:57:10.683Z,-4.22
2019-01-08T06:59:41.345Z,-4.15
2019-01-08T07:02:12.048Z,-4.16
2019-01-08T07:04:42.857Z,-4.16
2019-01-08T07:07:13.349Z,-4.09
2019-01-08T07:09:44.118Z,-4.09
2019-01-08T07:12:16.065Z,-3.96
2019-01-08T07:14:47.334Z,-3.80
2019-01-08T07:17:20.443Z,-3.66
2019-01-08T07:19:51.620Z,-3.51
2019-01-08T07:22:22.635Z,-3.43
2019-01-08T07:24:53.363Z,-3.32
2019-01-08T07:27:24.453Z,-3.42
2019-01-08T07:29:54.962Z,-3.28
2019-01-08T07:32:26.742Z,-3.31
2019-01-08T07:34:57.326Z,-3.25
2019-01-08T07:37:27.615Z,-3.15
2019-01-08T07:39:58.013Z,-3.00
2019-01-08T07:42:28.709Z,-2.93
2019-01-08T07:44:59.262Z,-2.90
2019-01-08T07:47:29.598Z,-2.78
2019-01-08T07:50:00.209Z,-2.92
2019-01-08T07:52:30.741Z,-2.90
2019-01-08T07:55:01.504Z,-2.85
2019-01-08T07:57:32.156Z,-2.83
2019-01-08T08:00:02.837Z,-2.87
2019-01-08T08:02:33.571Z,-2.77
2019-01-08T08:05:04.695Z,-2.67
2019-01-08T08:07:35.193Z,-2.56
2019-01-08T08:10:05.891Z,-2.55
2019-01-08T08:12:36.491Z,-2.54
2019-01-08T08:15:07.879Z,-2.51
2019-01-08T08:17:40.974Z,-2.52
2019-01-08T08:20:11.537Z,-2.34
2019-01-08T08:22:42.165Z,-2.28
2019-01-08T08:25:14.997Z,-2.20
2019-01-08T08:27:45.386Z,-1.95
2019-01-08T08:30:16.197Z,-1.75
2019-01-08T08:32:46.934Z,-1.61
2019-01-08T08:35:17.614Z,-1.38
2019-01-08T08:37:48.699Z,-1.40
2019-01-08T08:40:19.319Z,-1.31
2019-01-08T08:42:49.817Z,-0.95
2019-01-08T08:45:20.418Z,-0.81
2019-01-08T08:47:50.955Z,-0.78
2019-01-08T08:50:21.588Z,-0.78
2019-01-08T08:52:52.247Z,-0.79
2019-01-08T08:55:23.012Z,-0.57
2019-01-08T08:57:53.766Z,-0.36
2019-01-08T09:00:25.437Z,-0.32
2019-01-08T09:02:56.290Z,0.03
2019-01-08T09:05:26.981Z,-0.01
2019-01-08T09:07:57.674Z,0.02
2019-01-08T09:10:28.245Z,-0.09
2019-01-08T09:12:59.831Z,-0.11
2019-01-08T09:15:30.446Z,-0.23
2019-01-08T09:18:01.553Z,-0.49
2019-01-08T09:20:32.217Z,-0.68
2019-01-08T09:23:02.693Z,-0.65
2019-01-08T09:25:34.556Z,-0.68
2019-01-08T09:28:06.092Z,-0.79
2019-01-08T09:30:38.413Z,-0.76
2019-01-08T09:33:09.213Z,-0.73
2019-01-08T09:35:41.731Z,-0.76
2019-01-08T09:38:12.369Z,-0.74
2019-01-08T09:40:43.979Z,-0.66
2019-01-08T09:43:14.704Z,-0.67
2019-01-08T09:45:45.435Z,-0.52
2019-01-08T09:48:15.861Z,-0.50
2019-01-08T09:50:46.445Z,-0.44
2019-01-08T09:53:17.500Z,-0.47
2019-01-08T09:55:49.385Z,-0.48
2019-01-08T09:58:19.854Z,-0.47
2019-01-08T10:00:50.854Z,-0.49
2019-01-08T10:03:22.017Z,-0.47
2019-01-08T10:05:52.379Z,-0.47
2019-01-08T10:08:23.234Z,-0.42
2019-01-08T10:10:53.938Z,-0.35
2019-01-08T10:13:24.533Z,-0.27
2019-01-08T10:15:57.152Z,-0.36
2019-01-08T10:18:27.650Z,-0.35
2019-01-08T10:20:58.100Z,-0.51
2019-01-08T10:23:29.522Z,-0.50
2019-01-08T10:26:00.105Z,-0.55
2019-01-08T10:28:32.478Z,-0.54
2019-01-08T10:31:03.642Z,-0.68
2019-01-08T10:33:34.147Z,-0.58
2019-01-08T10:36:04.851Z,-0.53
2019-01-08T10:38:35.473Z,-0.59
2019-01-08T10:41:06.004Z,-0.51
2019-01-08T10:43:36.505Z,-0.53
2019-01-08T10:46:06.979Z,-0.68
2019-01-08T10:48:38.800Z,-0.61
2019-01-08T10:51:09.260Z,-0.65
2019-01-08T10:53:40.489Z,-0.59
2019-01-08T10:56:11.037Z,-0.57
2019-01-08T10:58:41.662Z,-0.51
2019-01-08T11:01:12.879Z,-0.55
2019-01-08T11:03:43.747Z,-0.45
2019-01-08T11:06:15.574Z,-0.47
2019-01-08T11:08:46.132Z,-0.33
2019-01-08T11:11:16.598Z,-0.30
2019-01-08T11:13:47.118Z,-0.26
2019-01-08T11:16:18.363Z,-0.22
2019-01-08T11:18:49.270Z,-0.20
2019-01-08T11:21:19.800Z,-0.28
2019-01-08T11:23:50.216Z,-0.19
2019-01-08T11:26:20.755Z,-0.08
2019-01-08T11:28:51.298Z,-0.15
2019-01-08T11:31:21.690Z,-0.16
2019-01-08T11:33:52.267Z,-0.20
2019-01-08T11:36:22.784Z,-0.15
2019-01-08T11:38:53.293Z,-0.20
2019-01-08T11:41:23.645Z,-0.17
2019-01-08T11:43:54.183Z,-0.12
2019-01-08T11:46:24.786Z,-0.12
2019-01-08T11:48:55.344Z,-0.09
2019-01-08T11:51:25.785Z,-0.09
2019-01-08T11:53:56.492Z,-0.13
2019-01-08T11:56:27.353Z,-0.06
2019-01-08T11:58:57.975Z,-0.13
2019-01-08T12:01:28.377Z,-0.04
2019-01-08T12:03:59.819Z,0.07
2019-01-08T12:06:30.663Z,0.08
2019-01-08T12:09:01.285Z,-0.01
2019-01-08T12:11:31.809Z,0.09
2019-01-08T12:14:02.461Z,0.18
2019-01-08T12:16:32.959Z,0.24
2019-01-08T12:19:03.482Z,0.12
2019-01-08T12:21:33.977Z,0.14
2019-01-08T12:24:04.687Z,0.09
2019-01-08T12:26:36.094Z,0.19
2019-01-08T12:29:06.503Z,0.12
2019-01-08T12:31:37.086Z,0.03
2019-01-08T12:34:08.783Z,-0.02
2019-01-08T12:36:39.201Z,0.03
2019-01-08T12:39:10.059Z,-0.11
2019-01-08T12:41:40.791Z,-0.22
2019-01-08T12:44:11.206Z,-0.30
2019-01-08T12:46:41.792Z,-0.28
2019-01-08T12:49:12.580Z,-0.38
2019-01-08T12:51:42.997Z,-0.36
2019-01-08T12:54:14.576Z,-0.40
2019-01-08T12:56:45.121Z,-0.42
2019-01-08T12:59:15.664Z,-0.43
2019-01-08T13:01:46.417Z,-0.40
2019-01-08T13:04:17.161Z,-0.44
2019-01-08T13:06:47.524Z,-0.43
2019-01-08T13:09:17.986Z,-0.47
2019-01-08T13:11:48.322Z,-0.44
2019-01-08T13:14:19.162Z,-0.51
2019-01-08T13:16:50.425Z,-0.55
2019-01-08T13:19:20.807Z,-0.47
2019-01-08T13:21:51.532Z,-0.43
2019-01-08T13:24:29.213Z,-0.46
2019-01-08T13:26:59.636Z,-0.48
2019-01-08T13:29:29.700Z,-0.47
2019-01-08T13:32:00.482Z,-0.48
2019-01-08T13:34:30.860Z,-0.50
2019-01-08T13:37:01.275Z,-0.44
2019-01-08T13:39:32.036Z,-0.41
2019-01-08T13:42:02.457Z,-0.41
2019-01-08T13:44:32.889Z,-0.41
2019-01-08T13:47:03.786Z,-0.40
2019-01-08T13:49:34.307Z,-0.34
2019-01-08T13:52:05.304Z,-0.31
2019-01-08T13:54:35.765Z,-0.28
2019-01-08T13:57:06.167Z,-0.25
2019-01-08T13:59:36.902Z,-0.31
2019-01-08T14:02:07.443Z,-0.35
2019-01-08T14:04:38.036Z,-0.39
2019-01-08T14:07:08.501Z,-0.40
2019-01-08T14:09:38.949Z,-0.45
2019-01-08T14:12:09.400Z,-0.51
2019-01-08T14:14:39.830Z,-0.48
2019-01-08T14:17:10.605Z,-0.47
2019-01-08T14:19:41.352Z,-0.43
2019-01-08T14:22:11.655Z,-0.37
2019-01-08T14:24:42.932Z,-0.36
2019-01-08T14:27:14.262Z,-0.42
2019-01-08T14:29:44.679Z,-0.35
2019-01-08T14:32:16.588Z,-0.36
2019-01-08T14:34:47.993Z,-0.33
2019-01-08T14:37:18.376Z,-0.33
2019-01-08T14:39:48.836Z,-0.42
2019-01-08T14:42:19.500Z,-0.41
2019-01-08T14:44:50.441Z,-0.50
2019-01-08T14:47:21.160Z,-0.56
2019-01-08T14:49:51.889Z,-0.62
2019-01-08T14:52:22.346Z,-0.66
2019-01-08T14:54:52.894Z,-0.68
2019-01-08T14:57:24.624Z,-0.71
2019-01-08T14:59:55.004Z,-0.77
2019-01-08T15:02:25.950Z,-0.74
2019-01-08T15:04:57.953Z,-0.77
2019-01-08T15:07:28.415Z,-0.81
2019-01-08T15:09:59.398Z,-0.90
2019-01-08T15:12:30.193Z,-0.89
2019-01-08T15:15:00.711Z,-1.03
2019-01-08T15:17:31.866Z,-1.01
2019-01-08T15:20:02.495Z,-0.98
2019-01-08T15:22:32.883Z,-1.00
2019-01-08T15:25:03.663Z,-1.00
2019-01-08T15:27:34.083Z,-1.05
2019-01-08T15:30:04.711Z,-1.08
2019-01-08T15:32:36.181Z,-1.12
2019-01-08T15:35:07.337Z,-1.14
2019-01-08T15:37:37.879Z,-1.11
2019-01-08T15:40:08.477Z,-1.15
2019-01-08T15:42:38.978Z,-1.23
2019-01-08T15:45:09.595Z,-1.21
2019-01-08T15:47:40.316Z,-1.23
2019-01-08T15:50:12.407Z,-1.26
2019-01-08T15:52:42.916Z,-1.38
2019-01-08T15:55:13.472Z,-1.42
2019-01-08T15:57:44.069Z,-1.42
2019-01-08T16:00:15.608Z,-1.46
2019-01-08T16:02:46.702Z,-1.43
2019-01-08T16:05:17.183Z,-1.47
2019-01-08T16:07:47.967Z,-1.45
2019-01-08T16:10:19.096Z,-1.55
2019-01-08T16:12:49.686Z,-1.61
2019-01-08T16:15:21.328Z,-1.61
2019-01-08T16:17:51.765Z,-1.64
2019-01-08T16:20:22.335Z,-1.65
2019-01-08T16:22:53.005Z,-1.72
2019-01-08T16:25:23.726Z,-1.81
2019-01-08T16:27:54.361Z,-1.97
2019-01-08T16:30:24.933Z,-2.05
2019-01-08T16:32:55.527Z,-2.07
2019-01-08T16:35:26.238Z,-2.13
2019-01-08T16:37:56.806Z,-2.17
2019-01-08T16:40:27.446Z,-2.17
2019-01-08T16:42:59.372Z,-2.20
2019-01-08T16:45:30.056Z,-2.25
2019-01-08T16:48:01.123Z,-2.24
2019-01-08T16:50:31.948Z,-2.29
2019-01-08T16:53:03.031Z,-2.30
2019-01-08T16:55:33.596Z,-2.33
2019-01-08T16:58:04.270Z,-2.33
2019-01-08T17:00:34.704Z,-2.45
2019-01-08T17:03:05.449Z,-2.47
2019-01-08T17:05:35.853Z,-2.46
2019-01-08T17:08:06.635Z,-2.48
2019-01-08T17:10:37.761Z,-2.51
2019-01-08T17:13:08.589Z,-2.53
2019-01-08T17:15:39.640Z,-2.45
2019-01-08T17:18:10.353Z,-2.46
2019-01-08T17:20:41.601Z,-2.46
2019-01-08T17:23:12.361Z,-2.45
2019-01-08T17:25:47.943Z,-2.47
2019-01-08T17:28:17.545Z,-2.51
2019-01-08T17:30:48.222Z,-2.48
2019-01-08T17:33:18.681Z,-2.47
2019-01-08T17:35:49.314Z,-2.53
2019-01-08T17:38:21.033Z,-2.46
2019-01-08T17:40:51.577Z,-2.47
2019-01-08T17:43:22.019Z,-2.54
2019-01-08T17:45:53.296Z,-2.62
2019-01-08T17:48:23.719Z,-2.63
2019-01-08T17:50:54.410Z,-2.68
2019-01-08T17:53:26.190Z,-2.72
2019-01-08T17:55:57.332Z,-2.75
2019-01-08T17:58:44.748Z,-2.74
2019-01-08T18:01:28.524Z,-2.67
2019-01-08T18:03:59.201Z,-2.64
2019-01-08T18:06:29.775Z,-2.66
2019-01-08T18:09:00.418Z,-2.71
2019-01-08T18:11:30.833Z,-2.68
2019-01-08T18:14:01.261Z,-2.59
2019-01-08T18:16:32.711Z,-2.54
2019-01-08T18:19:03.571Z,-2.59
2019-01-08T18:21:34.163Z,-2.54
2019-01-08T18:24:05.191Z,-2.54
2019-01-08T18:26:35.896Z,-2.61
2019-01-08T18:29:06.664Z,-2.63
2019-01-08T18:31:37.222Z,-2.67
2019-01-08T18:34:07.818Z,-2.75
2019-01-08T18:36:38.694Z,-2.73
2019-01-08T18:39:10.822Z,-2.72
2019-01-08T18:41:41.764Z,-2.71
2019-01-08T18:44:12.238Z,-2.75
2019-01-08T18:46:43.848Z,-2.78
2019-01-08T18:49:14.523Z,-2.79
2019-01-08T18:51:45.514Z,-2.80
2019-01-08T18:54:16.318Z,-2.77
2019-01-08T18:56:47.106Z,-2.85
2019-01-08T18:59:17.662Z,-2.83
2019-01-08T19:01:48.320Z,-2.86
2019-01-08T19:04:19.219Z,-2.87
2019-01-08T19:06:49.879Z,-2.80
2019-01-08T19:09:51.780Z,-2.86
2019-01-08T19:12:24.974Z,-2.90
2019-01-08T19:14:55.607Z,-2.90
2019-01-08T19:17:26.605Z,-2.88
2019-01-08T19:19:57.137Z,-2.84
2019-01-08T19:22:27.713Z,-2.82
2019-01-08T19:24:58.200Z,-2.83
2019-01-08T19:27:28.719Z,-2.75
2019-01-08T19:29:59.317Z,-2.65
2019-01-08T19:32:31.318Z,-2.68
2019-01-08T19:35:01.738Z,-2.66
2019-01-08T19:37:32.586Z,-2.53
2019-01-08T19:40:03.479Z,-2.57
2019-01-08T19:42:34.215Z,-2.57
2019-01-08T19:45:05.199Z,-2.56
2019-01-08T19:47:35.917Z,-2.48
2019-01-08T19:50:08.699Z,-2.50
2019-01-08T19:52:39.242Z,-2.52
2019-01-08T19:55:09.687Z,-2.52
2019-01-08T19:57:40.462Z,-2.62
2019-01-08T20:00:12.552Z,-2.61
2019-01-08T20:02:43.205Z,-2.57
2019-01-08T20:05:13.675Z,-2.60
2019-01-08T20:07:44.288Z,-2.59
2019-01-08T20:10:15.215Z,-2.58
2019-01-08T20:12:45.911Z,-2.55
2019-01-08T20:15:16.409Z,-2.52
2019-01-08T20:17:48.224Z,-2.48
2019-01-08T20:20:18.857Z,-2.53
2019-01-08T20:22:49.555Z,-2.53
2019-01-08T20:25:20.688Z,-2.53
2019-01-08T20:27:51.441Z,-2.49
2019-01-08T20:30:22.009Z,-2.51
2019-01-08T20:32:52.646Z,-2.53
2019-01-08T20:35:23.478Z,-2.57
2019-01-08T20:37:53.889Z,-2.50
2019-01-08T20:40:25.459Z,-2.60
2019-01-08T20:42:55.966Z,-2.52
2019-01-08T20:45:26.633Z,-2.58
2019-01-08T20:47:57.116Z,-2.65
2019-01-08T20:50:28.964Z,-2.71
2019-01-08T20:52:59.578Z,-2.75
2019-01-08T20:55:30.195Z,-2.76
2019-01-08T20:58:00.887Z,-2.77
2019-01-08T21:00:31.487Z,-2.81
2019-01-08T21:03:02.116Z,-2.76
2019-01-08T21:05:33.714Z,-2.75
2019-01-08T21:08:04.548Z,-2.80
2019-01-08T21:10:35.079Z,-2.80
2019-01-08T21:13:05.736Z,-2.79
2019-01-08T21:15:36.242Z,-2.74
2019-01-08T21:18:06.752Z,-2.72
2019-01-08T21:20:37.519Z,-2.72
2019-01-08T21:23:09.881Z,-2.72
2019-01-08T21:25:40.302Z,-2.73
2019-01-08T21:28:10.810Z,-2.71
2019-01-08T21:30:41.292Z,-2.69
2019-01-08T21:33:12.015Z,-2.67
2019-01-08T21:35:42.698Z,-2.70
2019-01-08T21:38:13.395Z,-2.66
2019-01-08T21:40:43.911Z,-2.70
2019-01-08T21:43:14.991Z,-2.72
2019-01-08T21:45:45.354Z,-2.74
2019-01-08T21:48:20.030Z,-2.72
2019-01-08T21:50:50.437Z,-2.73
2019-01-08T21:53:21.197Z,-2.72
2019-01-08T21:55:51.830Z,-2.70
2019-01-08T21:58:22.323Z,-2.67
2019-01-08T22:00:53.080Z,-2.67
2019-01-08T22:03:23.879Z,-2.73
2019-01-08T22:05:54.821Z,-2.76
2019-01-08T22:08:25.513Z,-2.74
2019-01-08T22:10:55.972Z,-2.78
2019-01-08T22:13:26.375Z,-2.72
2019-01-08T22:15:56.964Z,-2.73
2019-01-08T22:18:27.653Z,-2.73
2019-01-08T22:20:58.167Z,-2.77
2019-01-08T22:23:28.862Z,-2.81
2019-01-08T22:25:59.391Z,-2.87
2019-01-08T22:28:32.336Z,-2.79
2019-01-08T22:31:03.344Z,-2.78
2019-01-08T22:33:33.961Z,-2.74
2019-01-08T22:36:04.553Z,-2.71
2019-01-08T22:38:35.235Z,-2.68
2019-01-08T22:41:06.430Z,-2.70
2019-01-08T22:43:36.910Z,-2.66
2019-01-08T22:46:07.532Z,-2.69
2019-01-08T22:48:38.126Z,-2.57
2019-01-08T22:51:08.706Z,-2.51
2019-01-08T22:53:39.451Z,-2.49
2019-01-08T22:56:10.025Z,-2.43
2019-01-08T22:58:40.733Z,-2.45
2019-01-08T23:01:26.327Z,-2.52
2019-01-08T23:03:57.053Z,-2.55
2019-01-08T23:06:27.648Z,-2.52
2019-01-08T23:08:58.336Z,-2.80
2019-01-08T23:11:29.014Z,-2.93
2019-01-08T23:13:59.835Z,-3.00
2019-01-08T23:16:30.336Z,-3.05
2019-01-08T23:19:00.911Z,-2.97
2019-01-08T23:21:31.506Z,-3.05
2019-01-08T23:24:02.054Z,-2.91
2019-01-08T23:26:32.745Z,-2.86
2019-01-08T23:29:03.430Z,-2.82
2019-01-08T23:31:33.924Z,-2.71
2019-01-08T23:34:04.790Z,-2.82
2019-01-08T23:36:38.054Z,-2.97
2019-01-08T23:39:10.587Z,-2.96
2019-01-08T23:41:41.295Z,-2.90
2019-01-08T23:44:11.659Z,-2.97
2019-01-08T23:46:42.319Z,-2.96
2019-01-08T23:49:13.825Z,-3.03
2019-01-08T23:51:44.887Z,-3.08
2019-01-08T23:54:17.192Z,-3.05
2019-01-08T23:56:49.561Z,-3.03
2019-01-08T23:59:20.094Z,-3.00
